x

Olcott Harbor, Ny (olcn6) Weather Station

5:00am - Mon 2nd Mar 2015 All times are CST. -6 hours from GMT.

  • Wind
    15mph, 21mph gusts
  • Air Temp 22°f
  • Sea Pressure 1022.4mb
  • Olcott Harbor, Ny
  • Olcott Harbor, Ny

More Historic Weather Station data

Upgrade to MSW Pro to gain access to the past 30 days of data for over 8000 Wavebouys and Weather Stations around the globe.

Join Pro

Comparision Forecast

View Surf forecast
   
Mon 03/02 5:00am 15 21 mph 1022.4mb 22f
4:50am 15 21 mph 1022.4mb 22f
4:40am 14 20 mph 1022mb 22f
4:30am 11 17 mph 1022mb 22f
4:20am 10 17 mph 1021.7mb 22f
4:10am 11 15 mph 1021.3mb 21f
4:00am 11 15 mph 1021.7mb 21f
3:50am 11 16 mph 1021.7mb 21f
3:40am 13 17 mph 1021.7mb 21f
3:30am 11 18 mph 1021.7mb 21f
3:20am 14 20 mph 1021.3mb 21f
3:10am 11 20 mph 1021.3mb 21f
3:00am 13 17 mph 1021.3mb 22f
2:50am 14 18 mph 1021.3mb 22f
2:40am 13 21 mph 1021.7mb 22f
2:30am 11 18 mph 1021.7mb 22f
2:20am 11 17 mph 1021.3mb 22f
2:10am 11 16 mph 1021.7mb 22f
Sun 03/01 11:00pm 11 17 mph 1021.7mb 23f
10:50pm 13 17 mph 1021.7mb 23f
10:40pm 10 15 mph 1021.7mb 23f
10:30pm 10 16 mph 1022mb 23f
10:20pm 8 13 mph 1022mb 23f
10:10pm 8 11 mph 1022mb 23f
5:00pm  -  1 mph 1024mb 23f
4:50pm 1
mph
1024mb 23f
4:40pm  -  1 mph 1024mb 23f
4:30pm  -  mph 1024.4mb 23f
4:20pm  -  mph 1024.4mb 23f
4:10pm  -  mph 1024.4mb 24f
3:00pm 1 2 mph 1025.4mb 24f
2:50pm  -  2 mph 1025.4mb 24f
2:40pm 1 2 mph 1025.4mb 24f
2:30pm  -  1 mph 1025.4mb 25f
2:20pm  -  mph 1025.4mb 27f
2:10pm  -  1 mph 1025.4mb 25f
10:00am 5 6 mph 1030.1mb 22f
9:50am 5 6 mph 1030.1mb 22f
9:40am 6 7 mph 1030.5mb 22f
9:30am 6
mph
1030.5mb 21f
9:20am 5 6 mph 1030.8mb 21f
9:10am 5 6 mph 1030.8mb 21f
5:00am 2 3 mph 1033.5mb 13f
4:50am 2 3 mph 1033.9mb 13f
4:40am  -  2 mph 1033.9mb 13f
4:30am  -  2 mph 1033.9mb 13f
4:20am  -  1 mph 1033.9mb 13f
4:10am  -  2 mph 1033.9mb 13f
3:10am  -  2 mph 1034.5mb 12f
3:00am 1 3 mph 1034.2mb 12f
2:50am 2 3 mph 1034.5mb 12f
2:40am 2 5 mph 1034.9mb 13f
2:30am 3 5 mph 1034.9mb 12f
2:20am 2
mph
1035.2mb 12f
2:10am  -  2 mph 1035.6mb 11f
Sat 02/28 5:00pm 5 8 mph 1040.6mb 19f
4:50pm 5 8 mph 1041mb 19f
4:40pm 6 9 mph 1041mb 20f
4:30pm 7 9 mph 1041mb 20f
4:20pm 7 11 mph 1041mb 20f
4:10pm 8 10 mph 1041.3mb 21f
4:00pm 7 11 mph 1041.3mb 21f
3:50pm 9 15 mph 1041.7mb 21f
3:40pm 9 13 mph 1041.3mb 21f
3:30pm 10 14 mph 1041.3mb 21f
3:20pm 8 14 mph 1041.7mb 21f
3:10pm 9 15 mph 1041.3mb 21f
3:00pm 10 15 mph 1041.7mb 21f
2:50pm 10 15 mph 1041.7mb 21f
2:40pm 9 16 mph 1041.7mb 21f
2:30pm 8 15 mph 1041.7mb 21f
2:20pm 9 17 mph 1041.7mb 21f
2:10pm 8 14 mph 1041.7mb 21f
8:00am 6 9 mph 1043.7mb 10f
7:50am 6 9 mph 1043.7mb 10f
7:40am 7 10 mph 1043.3mb 9f
7:30am 7 11 mph 1043.3mb 8f
7:20am 10 14 mph 1043.3mb 8f
7:10am 7 13 mph 1043.3mb 7f
3:00am 8 13 mph 1040.6mb 4f
2:50am 7 11 mph 1040.6mb 4f
2:40am 7 11 mph 1040.3mb 5f
2:30am 9 13 mph 1040.3mb 5f
2:20am 9 13 mph 1040mb 5f
2:10am 8 13 mph 1040mb 5f
Fri 02/27 2:00pm 15 22 mph 1034.9mb 13f
1:50pm 15 21 mph 1034.9mb 13f
1:40pm 15 21 mph 1034.5mb 13f
1:30pm 14 22 mph 1034.5mb 13f
1:20pm 13 22 mph 1034.5mb 13f
1:10pm 11 20 mph 1034.5mb 13f